Tiempo atmosférico en la estación meteorológica de Asturias Aeropuerto, Asturias (127 m.)

Fecha
DESCASC
Temp. máxima en grados centígrados (hora)
DESCASC
Temp. mínima en grados centígrados (hora)
DESCASC
Temp. media en grados centígrados
DESCASC
Racha de viento máxima en m/sg (hora)
DESCASC
Velocidad máxima media en intervalos de 10 minutos(hora)
DESCASC
Precipitaciones diarias en mm
DESCASC
Precipitaciones de 00:00 a 06:00 en mm
DESCASC
Precipitaciones de 06:00 a 12:00 en mm
DESCASC
Precipitaciones de 12:00 a 18:00 en mm
DESCASC
Precipitaciones de 18:00 a 24:00 en mm
DESCASC
23-11-2017 20.3 (14:30) 11.6 (19:50) 15.9 13.89 (00:10) 8.33 (00:10) 0 0 0 0 0
22-11-2017 24.1 (13:20) 7.8 (05:10) 16 18.61 (21:50) 11.11 (22:00) 0 0 0 0 0
21-11-2017 20.5 (15:00) 7.7 (07:30) 14.1 9.72 (01:50) 6.67 (09:20) 0 0 0 0 0
20-11-2017 19 (15:10) 6.5 (02:50) 12.8 9.72 (05:30) 6.39 (05:30) 0 0 0 0 0
19-11-2017 15.5 (14:30) 5.3 (00:00) 10.4 8.33 (11:50) 5.56 (12:00) 0 0 0 0 0
18-11-2017 16.3 (14:00) 5.4 (00:00) 10.8 9.72 (16:50) 6.11 (13:40) 0 0 0 0 0
17-11-2017 15.5 (14:50) 6.4 (00:00) 11 7.78 (07:40) 4.72 (08:40) 0 0 0 0 0
16-11-2017 16.2 (14:00) 7.4 (00:00) 11.8 10.28 (10:50) 5 (05:40) 0 0 0 0 0
15-11-2017 15.7 (15:40) 4.2 (00:00) 9.9 10.28 (11:50) 6.39 (12:00) 0 0 0 0 0
14-11-2017 14.3 (14:20) 2.7 (00:00) 8.5 10.83 (14:50) 6.67 (16:00) -- 0 -- -- 0
13-11-2017 14.5 (11:00) 5.3 (00:00) 9.9 8.89 (00:10) 3.33 (00:40) 0 0 0 0 0
12-11-2017 16.3 (14:30) 11.2 (00:00) 13.7 10.83 (15:10) 7.5 (15:10) 3.8 0 0 0.1 3.7
11-11-2017 15.5 (14:50) 10.8 (00:00) 13.2 8.89 (13:00) 5.83 (16:00) 0.1 0.1 0 0 0
10-11-2017 15.8 (14:30) 11.1 (00:00) 13.5 8.89 (07:40) 3.61 (11:20) 7.1 5.1 1.2 0.3 0.5
09-11-2017 12.5 (16:30) 6.2 (00:00) 9.3 10.83 (10:50) 5 (05:00) 1.3 0 0.7 0 0.6
08-11-2017 12.4 (01:20) 7.4 (00:00) 9.9 10.28 (13:30) 6.11 (13:20) 17.8 0 13.4 4 0.4
07-11-2017 13.1 (19:00) 5.4 (00:00) 9.3 10.83 (16:30) 7.22 (16:30) 1.7 0 0 1.7 0
06-11-2017 16.4 (15:20) 6.2 (00:00) 11.3 8.33 (11:00) 4.44 (09:00) 0.5 0.4 0.1 0 0
05-11-2017 14.8 (13:50) 9.7 (00:00) 12.3 10.28 (01:00) 6.67 (13:30) 10.9 0.5 4.5 4 1.9
04-11-2017 16.7 (11:40) 11.1 (00:00) 13.9 10.28 (17:30) 5.28 (17:20) 6.5 0 0 5.3 1.2
03-11-2017 19.6 (12:30) 12.4 (00:00) 16 8.33 (06:50) 5.56 (10:10) 2.5 0 1.7 0.8 0
02-11-2017 19.8 (12:20) 14.1 (23:50) 16.9 8.89 (05:10) 6.11 (05:20) 1.9 0 0 0.5 1.4
01-11-2017 21.8 (13:50) 9.5 (00:00) 15.6 9.17 (06:10) 6.39 (06:50) 0 0 0 0 0
31-10-2017 16.5 (14:10) 8 (00:00) 12.3 10.28 (11:00) 7.5 (11:20) 0 0 0 0 0
30-10-2017 17.1 (11:20) 10.1 (00:00) 13.6 10.83 (16:30) 6.11 (16:40) 3.6 0.6 2.1 0.9 0
29-10-2017 19.5 (11:40) 12 (00:00) 15.8 5 (12:00) 3.33 (10:20) 1.6 0 0 0 1.6
28-10-2017 20 (14:00) 13.2 (00:00) 16.6 8.33 (17:00) 4.44 (17:00) 0 0 0 0 0
27-10-2017 21.8 (13:40) 12.6 (00:00) 17.2 9.17 (04:10) 5.83 (04:00) 0 0 0 0 0
26-10-2017 22.5 (13:10) 10.8 (00:00) 16.7 9.17 (01:00) 6.39 (01:50) 0 0 0 0 0

Gráficas

Temp. máximas Temp. mínimas Temp. medias Precipitaciones Rachas de viento máximas Velocidades máximas media en intervalos de 10 minutos

Datos horarios

Fecha y hora oficial Temperatura (ºC) Velocidad del viento (km/h) Dirección del viento Racha (km/h) Dirección de racha Precipitación (mm) Presión (hPa) Tendencia (hPa) Humedad (%)
2017-11-24 23:00:00 11.7 3 Este 21 Oeste 2.7 1003.5 1.8 97
2017-11-24 22:00:00 12 4 Oeste 13 Oeste 2.5 1002.5 1.1 96
2017-11-24 21:00:00 12 4 Oeste 22 Sur 1.2 1001.9 0.5 96
2017-11-24 20:00:00 12.1 3 Sudoeste 11 Sudoeste 0.1 1001.7 0.6 96
2017-11-24 19:00:00 11.9 4 Sudoeste 13 Sudoeste 0.7 1001.4 0.1 95
2017-11-24 18:00:00 11.8 9 Sur 28 Sur 0.6 1001.4 0.3 93
2017-11-24 17:00:00 12.3 0 Calma 11 Oeste 1 1001.1 0 93
2017-11-24 16:00:00 12.9 9 Oeste 18 Oeste 0.4 1001.3 -0.2 83
2017-11-24 15:00:00 14.2 6 Noroeste 17 Noroeste 0.1 1001.1 -1 84
2017-11-24 14:00:00 14.5 3 Sudoeste 22 Sudoeste 0 1001.1 -0.3 86
2017-11-24 13:00:00 14.7 5 Oeste 13 Sudoeste 0 1001.5 0.8 90
2017-11-24 12:00:00 13.4 6 Sudoeste 28 Sudoeste 0 1002.1 1.7 93
2017-11-24 11:00:00 12.5 9 Sudoeste 28 Sudoeste 0 1001.4 0.9 95
2017-11-24 10:00:00 12.3 14 Sudoeste 28 Sur 0.3 1000.7 0.5 94
2017-11-24 09:00:00 11.4 4 Sur 22 Oeste 1.9 1000.4 0.7 92
2017-11-24 08:00:00 11.7 11 Oeste 22 Oeste 1.5 1000.5 1.1 92
2017-11-24 07:00:00 12.1 15 Oeste 24 Noroeste 1.1 1000.2 1.3 94
2017-11-24 06:00:00 13 13 Oeste 22 Oeste 0 999.7 1.2 92
2017-11-24 05:00:00 13.2 6 Oeste 22 Oeste 1 999.4 0.7 94
2017-11-24 04:00:00 13.5 6 Noroeste 22 Noroeste 0 998.9 0.4 92
2017-11-24 03:00:00 13.8 13 Oeste 18 Noroeste 0 998.5 0.1 95
2017-11-24 02:00:00 14.3 4 Noroeste -- -- -- 998.7 0.6 96
2017-11-24 01:00:00 14.6 0 Calma 13 Noroeste 0 998.5 1.2 95
2017-11-24 00:00:00 14.8 3 Noroeste 8 Noroeste 0 998.4 1.6 94
2017-11-23 23:00:00 15 5 Noroeste 24 Norte 0 998.1 1.7 86
2017-11-23 22:00:00 14.8 5 Sudoeste 26 Sudoeste 0 997.3 0.9 79
2017-11-23 21:00:00 15 9 Sudoeste 15 Sudoeste 0 996.8 0.6 82
2017-11-23 20:00:00 12 0 Calma 5 Sur 0 996.4 0.6 93
2017-11-23 19:00:00 12.4 5 Sudeste -- -- 0 996.4 1 88
2017-11-23 18:00:00 15 3 Este 9 Este 0 996.2 1 82
2017-11-23 17:00:00 17.5 0 Calma 8 Este 0 995.8 0.4 73
2017-11-23 16:00:00 17.6 0 Calma 18 Sudeste 0 995.4 -0.1 73
2017-11-23 15:00:00 19 14 Este 22 Sudeste 0 995.2 -0.7 64
2017-11-23 14:00:00 19.6 13 Este 21 Este 0 995.4 -0.5 65
2017-11-23 13:00:00 19.5 13 Este 21 Este 0 995.5 0.2 65
2017-11-23 12:00:00 19.4 8 Sudeste 15 Sudeste 0 995.9 1.3 63
2017-11-23 11:00:00 18.7 0 Calma 8 Este 0 995.9 2.3 63
2017-11-23 10:00:00 17 3 Sudeste 15 Sudeste 0 995.3 2.6 72
2017-11-23 09:00:00 14.2 8 Sudeste 24 Oeste 0 994.6 2.7 81
2017-11-23 08:00:00 13.7 0 Calma 5 Norte 0 993.6 2.5 75
2017-11-23 07:00:00 14.5 0 Calma 13 Sur 0 992.7 2.1 75
2017-11-23 06:00:00 14.5 6 Sudeste 13 Sudeste 0 991.9 2.1 74
2017-11-23 05:00:00 14.6 6 Sur 11 Sudeste 0 991.1 1.7 77
2017-11-23 04:00:00 15.8 2 Oeste 21 Oeste 0 990.6 1.2 74
2017-11-23 03:00:00 16.2 5 Oeste 13 Noroeste 0 989.8 0.5 66
2017-11-23 02:00:00 17.3 0 Calma -- -- -- 989.4 0.7 49
2017-11-23 01:00:00 18.1 18 Sudoeste 50 Oeste 0 989.4 0.9 46
2017-11-23 00:00:00 18.8 27 Sudoeste 50 Sudoeste 0 989.3 1.7 41
2017-11-22 23:00:00 18.2 17 Sudoeste 59 Oeste 0 988.7 1.4 40
2017-11-22 22:00:00 20.4 40 Oeste 67 Oeste 0 988.5 1.1 30
2017-11-22 21:00:00 21.5 21 Sudoeste 42 Sudoeste 0 987.6 0.2 25
2017-11-22 20:00:00 20.1 9 Sudoeste 22 Sudoeste 0 987.3 -0.3 30
2017-11-22 19:00:00 19.1 4 Sur 24 Sur 0 987.4 -1.5 36
2017-11-22 18:00:00 21.1 15 Sur 48 Sur 0 987.4 -2.5 31
2017-11-22 17:00:00 22.3 22 Sudoeste 46 Sudoeste 0 987.6 -3.4 29
2017-11-22 16:00:00 22.1 10 Sudoeste 52 Sudoeste 0 988.9 -2.3 29
2017-11-22 15:00:00 21.6 17 Sudoeste 42 Oeste 0 989.9 -2.1 29
2017-11-22 14:00:00 22.6 28 Oeste 55 Sudoeste 0 991 -1 26
2017-11-22 13:00:00 23.1 11 Sudoeste 37 Sudoeste 0 991.2 -1.1 29
2017-11-22 12:00:00 20.7 9 Sudoeste 21 Sur 0 992 -0.8 34
2017-11-22 11:00:00 17.7 14 Sudoeste 21 Sur 0 992 -1.5 37
2017-11-22 10:00:00 16.2 17 Sur 33 Sur 0 992.3 -1.6 37
2017-11-22 09:00:00 10.3 10 Sur 24 Sur 0 992.8 -1.4 56
2017-11-22 08:00:00 9.3 10 Sudoeste 24 Sur 0 993.5 -1 57
2017-11-22 07:00:00 8.9 8 Sudoeste 18 Sudoeste 0 993.9 -1.7 58
2017-11-22 06:00:00 12.1 12 Sudoeste 18 Sudoeste 0 994.2 -2.1 44
2017-11-22 05:00:00 8.5 14 Sur 17 Sur 0 994.5 -2.6 60
2017-11-22 04:00:00 11.8 13 Sur 28 Sudoeste 0 995.6 -2.2 44
2017-11-22 03:00:00 9.9 22 Sudoeste 30 Sudoeste 0 996.3 -2.1 55
2017-11-22 02:00:00 10 22 Sudoeste 32 Sudoeste 0 997.1 -1.9 56
2017-11-22 01:00:00 10.4 22 Sudoeste 32 Sudoeste 0 997.8 -1.9 56
2017-11-22 00:00:00 10.5 19 Sur 30 Sur 0 998.4 -1.6 60
2017-11-21 23:00:00 11.4 21 Sudoeste 32 Sudoeste 0 999 -1.4 59
2017-11-21 22:00:00 11.6 15 Sur 28 Sudoeste 0 999.7 -0.9 64
2017-11-21 21:00:00 12.4 19 Sudoeste 28 Sur 0 1000 -0.9 65
2017-11-21 20:00:00 13.8 14 Sur 24 Sur 0 1000.4 -0.8 61
2017-11-21 19:00:00 11.7 12 Sur 17 Sur 0 1000.6 -0.7 76
2017-11-21 18:00:00 12.8 8 Sudeste 15 Sur 0 1000.9 -0.9 75
2017-11-21 17:00:00 17.1 0 Calma 4 Sudeste 0 1001.2 -1.3 62
2017-11-21 16:00:00 18.6 2 Sudeste 8 Este 0 1001.3 -2 57
2017-11-21 15:00:00 20.3 0 Calma 13 Sur 0 1001.8 -2.4 47
2017-11-21 14:00:00 19.5 3 Sur 21 Sur 0 1002.5 -2.2 41
2017-11-21 13:00:00 17.1 15 Sur 26 Sudoeste 0 1003.3 -1.4 39
2017-11-21 12:00:00 14.1 17 Sudoeste 30 Sudoeste 0 1004.2 -0.7 48
2017-11-21 11:00:00 11.3 18 Sudoeste 32 Sur 0 1004.7 -0.1 53
2017-11-21 10:00:00 10.1 22 Sudoeste 35 Sur 0 1004.7 0 55
2017-11-21 09:00:00 8.4 21 Sudoeste 33 Sudoeste 0 1004.9 0.1 60
2017-11-21 08:00:00 8.1 19 Sur 33 Sur 0 1004.8 0.5 65
2017-11-21 07:00:00 8.2 22 Sudoeste 30 Sudoeste 0 1004.7 0.4 65
2017-11-21 06:00:00 8.6 14 Sudoeste 26 Sudoeste 0 1004.8 -0.1 64
2017-11-21 05:00:00 9.2 16 Sudoeste 33 Sudoeste 0 1004.3 -0.8 63
2017-11-21 04:00:00 9.6 18 Sudoeste 32 Sudoeste 0 1004.3 -1.2 64
2017-11-21 03:00:00 9.9 19 Sudoeste 30 Sudoeste 0 1004.9 -1 65
2017-11-21 02:00:00 10 20 Sudoeste 35 Sudoeste 0 1005.1 -1.1 67
2017-11-21 01:00:00 10 15 Sudoeste 28 Sudoeste 0 1005.5 -1 70
2017-11-21 00:00:00 10.1 17 Sudoeste 26 Sudoeste 0 1005.9 -0.6 72
2017-11-20 23:00:00 10.1 17 Sudoeste 24 Sudoeste 0 1006.2 -0.3 74
2017-11-20 22:00:00 11.1 14 Sudoeste 24 Sur 0 1006.5 0.3 70
2017-11-20 21:00:00 11.5 10 Sudoeste 21 Sudoeste 0 1006.5 0.7 68
2017-11-20 20:00:00 11.9 12 Sudoeste 18 Sudoeste 0 1006.5 0.9 68
2017-11-20 19:00:00 9.7 3 Sudoeste 15 Sudoeste 0 1006.2 0.9 67
2017-11-20 18:00:00 12.3 0 Calma 4 Sudoeste 0 1005.8 0.2 69
2017-11-20 17:00:00 16.2 0 Calma 4 Sur 0 1005.6 -0.3 61
2017-11-20 16:00:00 17.5 0 Calma 9 Oeste 0 1005.3 -0.9 50
2017-11-20 15:00:00 18.6 3 Noroeste 8 Noroeste 0 1005.6 -1.4 37
2017-11-20 14:00:00 17.9 3 Noroeste 13 Sudoeste 0 1005.9 -1.5 41
2017-11-20 13:00:00 17.2 5 Sudoeste 21 Sudoeste 0 1006.2 -1 45
2017-11-20 12:00:00 14.4 14 Sudoeste 24 Sur 0 1007 0.1 51
2017-11-20 11:00:00 12.5 16 Sudoeste 28 Sudoeste 0 1007.4 0.7 54
2017-11-20 10:00:00 9.9 19 Sudoeste 32 Sudoeste 0 1007.2 0.8 62
2017-11-20 09:00:00 8.4 18 Sudoeste 33 Oeste 0 1006.9 1 66
2017-11-20 08:00:00 7 16 Sudoeste 28 Sudoeste 0 1006.7 0.8 73
2017-11-20 07:00:00 7.2 14 Sudoeste 24 Sudoeste 0 1006.4 -0.2 72
2017-11-20 06:00:00 7.7 13 Sudoeste 35 Sudoeste 0 1005.9 -1.1 70
2017-11-20 05:00:00 7.1 22 Sudoeste 32 Sudoeste 0 1005.9 -1.6 75
2017-11-20 04:00:00 6.9 18 Sur 28 Sudoeste 0 1006.6 -1.1 80
2017-11-20 03:00:00 6.9 15 Sur 22 Sur 0 1007 -0.9 81
2017-11-20 02:00:00 8.7 13 Sur 30 Sur 0 1007.5 -0.9 73
2017-11-20 01:00:00 8 17 Sudoeste 32 Sudoeste 0 1007.7 -0.6 78
2017-11-20 00:00:00 7.8 17 Sur 26 Sudoeste 0 1007.9 0.5 83
2017-11-19 23:00:00 6 12 Sudeste 22 Sudeste 0 1008.4 1 88
2017-11-19 22:00:00 6.3 10 Sudeste 17 Sudeste 0 1008.3 0.9 84
2017-11-19 21:00:00 9.3 4 Sudeste 24 Sur 0 1007.4 -0.3 78
2017-11-19 20:00:00 8.1 6 Sur 17 Sudeste 0 1007.4 -0.1 86
2017-11-19 19:00:00 9.3 15 Sudeste 21 Sur 0 1007.4 0.2 80
2017-11-19 18:00:00 10.1 10 Este 15 Este 0 1007.7 0.1 77
2017-11-19 17:00:00 13.9 10 Este 21 Este 0 1007.5 -0.5 66
2017-11-19 16:00:00 15 10 Este 21 Este 0 1007.2 -1.4 61
2017-11-19 15:00:00 15.3 9 Este 24 Sudeste 0 1007.6 -1.4 61
2017-11-19 14:00:00 14.7 18 Sudeste 24 Sudeste 0 1008 -1 62
2017-11-19 13:00:00 13.5 16 Sudeste 26 Este 0 1008.6 -0.3 66
2017-11-19 12:00:00 12.4 20 Sudeste 30 Este 0 1009 0.6 70
2017-11-19 11:00:00 10.8 8 Sur 18 Sur 0 1009 1.1 81
2017-11-19 10:00:00 8.5 7 Sur 22 Sur 0 1008.9 1 89
2017-11-19 09:00:00 6.5 15 Sudoeste 21 Sudoeste 0 1008.4 0.8 96
2017-11-19 08:00:00 6.3 14 Sur 18 Sur 0 1007.9 0.4 97
2017-11-19 07:00:00 5.8 6 Sur 13 Sur 0 1007.9 0.1 96
2017-11-19 06:00:00 7.1 0 Calma 15 Sur 0 1007.6 -0.4 96
2017-11-19 05:00:00 7.6 11 Sur 17 Sudoeste 0 1007.5 -0.5 96
2017-11-19 04:00:00 7.7 9 Sur 17 Sur 0 1007.8 -0.3 96
2017-11-19 03:00:00 6.5 8 Sur 18 Sudeste 0 1008 0 95
2017-11-19 02:00:00 7.6 13 Sudeste -- -- -- 1008 0.1 95
2017-11-19 01:00:00 7.8 15 Sudeste 18 Sudeste 0 1008.1 0.1 96
2017-11-19 00:00:00 7 15 Sudeste 21 Sudeste 0 1008 -0.1 96
2017-11-18 23:00:00 6.9 10 Sudeste 13 Sudeste 0 1007.9 -0.6 96
2017-11-18 22:00:00 7.5 12 Sudeste 18 Sudeste 0 1008 -0.5 95
2017-11-18 21:00:00 7.9 12 Sudeste 18 Sur 0 1008.1 -0.2 94
2017-11-18 20:00:00 8.2 11 Sudeste 17 Sudeste 0 1008.5 0.6 91
2017-11-18 19:00:00 9.7 11 Sudeste 18 Este 0 1008.5 0.8 87
2017-11-18 18:00:00 12.3 14 Este 32 Sudeste 0 1008.3 0.7 81
2017-11-18 17:00:00 13.8 17 Este 35 Este 0 1007.9 -0.1 77
2017-11-18 16:00:00 14.6 16 Este 32 Este 0 1007.7 -0.9 72
2017-11-18 15:00:00 14.8 17 Este 33 Este 0 1007.6 -1.6 70
2017-11-18 14:00:00 16.1 13 Este 32 Este 0 1008 -1.3 67
2017-11-18 13:00:00 14.4 15 Este 30 Este 0 1008.6 -0.5 74
2017-11-18 12:00:00 14 14 Este 28 Sudeste 0 1009.2 0.5 77
2017-11-18 11:00:00 13.3 7 Sudeste 17 Sudeste 0 1009.3 1.3 80
2017-11-18 10:00:00 10 6 Sur 22 Sur 0 1009.1 0.9 90
2017-11-18 09:00:00 7.4 6 Sur 32 Sur 0 1008.7 0.3 98
2017-11-18 08:00:00 6.8 17 Sur 30 Sur 0 1008 -0.4 97
2017-11-18 07:00:00 7.9 15 Sudoeste 21 Sudoeste 0 1008.2 -0.3 97
2017-11-18 06:00:00 7.6 13 Sur 18 Sur 0 1008.4 0.1 98
2017-11-18 05:00:00 6.3 7 Sur 13 Sur 0 1008.4 -0.1 98
2017-11-18 04:00:00 5.6 6 Sudeste 8 Sudeste 0 1008.5 -0.4 97
2017-11-18 03:00:00 5.7 6 Sur -- -- 0 1008.3 -0.5 96
2017-11-18 02:00:00 6.6 7 Sudeste -- -- -- 1008.5 -0.7 96
2017-11-18 01:00:00 6.8 6 Sudeste 11 Sudeste 0 1008.9 0.4 95
2017-11-18 00:00:00 6.5 7 Sur -- -- 0 1008.8 0.2 94
2017-11-17 23:00:00 8.5 4 Sudeste -- -- 0 1009.2 0.6 94
2017-11-17 22:00:00 9.7 4 Sudeste 13 Sudeste 0 1008.5 0.2 94
2017-11-17 21:00:00 10.6 4 Sudeste 15 Sudeste 0 1008.6 0.6 90
2017-11-17 20:00:00 10.7 3 Sudeste 5 Sudeste 0 1008.6 0.7 91
2017-11-17 19:00:00 12.3 3 Este 5 Este 0 1008.3 0.6 86
2017-11-17 18:00:00 13.1 0 Calma 4 Este 0 1008 0.2 85
2017-11-17 17:00:00 13.6 0 Calma 5 Este 0 1007.9 -0.1 82
2017-11-17 16:00:00 14.1 2 Nordeste 17 Sudeste 0 1007.7 -0.6 79
2017-11-17 15:00:00 15.2 13 Sudeste 17 Sudeste 0 1007.8 -1.1 70
2017-11-17 14:00:00 14.3 6 Este 13 Este 0 1008 -0.9 75
2017-11-17 13:00:00 13.3 4 Sur 18 Sudoeste 0 1008.3 -0.6 78
2017-11-17 12:00:00 12.2 10 Sudoeste 26 Sudoeste 0 1008.9 0.3 81
2017-11-17 11:00:00 11.4 13 Sudoeste 22 Sudoeste 0 1008.9 0.5 84
2017-11-17 10:00:00 10.8 13 Sudoeste 21 Sudoeste 0 1008.9 1 86
2017-11-17 09:00:00 10.5 14 Sur 22 Sur 0 1008.6 0.7 87
2017-11-17 08:00:00 10.3 13 Sudoeste 28 Sudoeste 0 1008.4 0.8 89
2017-11-17 07:00:00 10.3 13 Sudoeste 18 Sur 0 1007.9 0.1 90
2017-11-17 06:00:00 10.6 6 Sudoeste 17 Sudoeste 0 1007.9 0 90
2017-11-17 05:00:00 10.2 8 Sudoeste 17 Sudoeste 0 1007.6 -0.4 91
2017-11-17 04:00:00 10.2 10 Sudoeste 21 Sur 0 1007.8 -0.4 91
2017-11-17 03:00:00 10.2 10 Sudoeste 21 Sudoeste 0 1007.9 -0.3 92
2017-11-17 02:00:00 10.2 10 Sudoeste -- -- -- 1008 0 93
2017-11-17 01:00:00 10.3 9 Sudoeste 17 Sudoeste 0 1008.2 0.3 94
2017-11-17 00:00:00 10.5 6 Sudoeste 15 Sudoeste 0 1008.2 0.4 96
2017-11-16 23:00:00 9.2 7 Sudoeste 13 Sudoeste 0 1008 0.4 95
2017-11-16 22:00:00 9.8 9 Sudoeste 13 Sudoeste 0 1007.9 0.6 94
2017-11-16 21:00:00 10.3 9 Sudoeste 26 Sur 0 1007.8 0.9 95
2017-11-16 20:00:00 10.3 2 Sudoeste 5 Sur 0 1007.6 0.7 94
2017-11-16 19:00:00 10.6 0 Calma 4 Sudoeste 0 1007.3 0.5 91
2017-11-16 18:00:00 12.4 0 Calma 5 Oeste 0 1006.9 0.3 89
2017-11-16 17:00:00 14.3 4 Oeste 15 Noroeste 0 1006.9 0.1 81
2017-11-16 16:00:00 15.3 5 Oeste 17 Noroeste 0 1006.8 0 77
2017-11-16 15:00:00 15.4 10 Noroeste 18 Oeste 0 1006.6 -0.6 76
2017-11-16 14:00:00 16 8 Oeste 17 Oeste 0 1006.8 -0.3 74
2017-11-16 13:00:00 15.8 9 Noroeste 13 Oeste 0 1006.8 -0.1 75
2017-11-16 12:00:00 14.8 5 Oeste 18 Sudoeste 0 1007.2 0.8 70
2017-11-16 11:00:00 11.3 12 Sudoeste 37 Sur 0 1007.1 1.4 73
2017-11-16 10:00:00 9.3 14 Sudoeste 22 Sudoeste 0 1006.9 1.8 80
2017-11-16 09:00:00 8.1 12 Sudoeste 18 Sudoeste 0 1006.4 1.5 85
2017-11-16 08:00:00 7.6 13 Sudoeste 21 Sudoeste 0 1005.7 1 85
2017-11-16 07:00:00 7.8 14 Sudoeste 24 Sudoeste 0 1005.1 0.5 86
2017-11-16 06:00:00 7.5 16 Sudoeste 26 Sudoeste 0 1004.9 0.3 88
2017-11-16 05:00:00 7.5 12 Sudoeste 21 Sur 0 1004.7 0.2 89
2017-11-16 04:00:00 7.6 13 Sudoeste 18 Sudoeste 0 1004.6 0 89
2017-11-16 03:00:00 7.8 13 Sudoeste 17 Sudoeste 0 1004.6 -0.1 88
2017-11-16 02:00:00 8.3 8 Sudoeste -- -- -- 1004.5 -0.3 86
2017-11-16 01:00:00 8.5 10 Sudoeste 17 Sur 0 1004.6 -0.1 88
2017-11-16 00:00:00 8.7 9 Sudoeste 17 Sudoeste 0 1004.7 0 86
2017-11-15 23:00:00 9 9 Sur 18 Sur 0 1004.8 0 86
2017-11-15 22:00:00 9.4 8 Sudoeste 17 Sudoeste 0 1004.7 0 84
2017-11-15 21:00:00 9.7 9 Sudoeste 32 Sudoeste 0 1004.7 0.3 83
2017-11-15 20:00:00 9.4 7 Sudoeste 15 Sudeste 0 1004.8 0.7 86
2017-11-15 19:00:00 9 6 Sudeste 15 Sudeste 0 1004.7 0.6 81
2017-11-15 18:00:00 11.1 12 Sudeste 15 Sudeste 0 1004.4 0.4 73
2017-11-15 17:00:00 14.1 9 Este 15 Este 0 1004.1 -0.3 64
2017-11-15 16:00:00 15.1 6 Este 17 Sudeste 0 1004.1 -1.1 60
2017-11-15 15:00:00 15.3 11 Sudeste 24 Sudeste 0 1004 -1.9 49
2017-11-15 14:00:00 14.5 18 Sudeste 26 Sudeste 0 1004.4 -1.5 52
2017-11-15 13:00:00 13.6 17 Sudeste -- -- -- 1005.2 -0.6 51
2017-11-15 12:00:00 12.8 23 Sudeste -- -- -- 1005.9 0.4 50
2017-11-15 11:00:00 10.9 17 Sudeste 28 Sudeste 0 1005.9 1 55
2017-11-15 10:00:00 7.7 13 Sudoeste 18 Sudoeste 0 1005.8 1 76
2017-11-15 09:00:00 4.7 12 Sudoeste 21 Sur 0 1005.5 0.5 88
2017-11-15 08:00:00 4.3 7 Sur 17 Sur 0 1004.9 -0.2 84
2017-11-15 07:00:00 7.4 10 Sur 33 Sudeste 0 1004.8 -0.9 67
2017-11-15 06:00:00 7 17 Sudeste 30 Sudeste 0 1005 -1 69
2017-11-15 05:00:00 6.8 16 Sudeste 28 Sudeste 0 1005.1 -0.9 71
2017-11-15 04:00:00 5.7 10 Sudeste 18 Sudeste 0 1005.7 -0.8 76
2017-11-15 03:00:00 6.3 14 Sudeste 24 Sudeste 0 1006 -0.8 75
2017-11-15 02:00:00 5.8 15 Sudeste 22 Sudeste 0 1006 -1.2 76
2017-11-15 01:00:00 5.2 14 Sudeste 18 Sudeste 0 1006.5 -0.8 80
2017-11-15 00:00:00 6.6 13 Sudeste 22 Sudeste 0 1006.8 -0.7 75
2017-11-14 23:00:00 7.9 19 Sudeste 30 Este 0 1007.2 -0.5 71
2017-11-14 22:00:00 8.5 23 Sudeste 35 Sudeste 0 1007.3 -0.7 74
2017-11-14 21:00:00 8.5 17 Sudeste 33 Sudeste 0 1007.5 -0.6 77
2017-11-14 20:00:00 8.9 20 Sudeste 30 Este 0 1007.7 -0.1 77
2017-11-14 19:00:00 9.9 21 Sudeste 32 Este 0 1008 0 72
2017-11-14 18:00:00 10.9 16 Este 35 Sudeste 0 1008.1 -0.5 69
2017-11-14 17:00:00 12.3 23 Este 39 Este 0 1007.8 -1.3 64
2017-11-14 16:00:00 12.9 24 Este 39 Este 0 1008 -1.4 60
2017-11-14 15:00:00 14 22 Este 39 Sudeste 0 1008.6 -1.7 59
2017-11-14 14:00:00 14 22 Este -- -- -- 1009.1 -1.4 57
2017-11-14 13:00:00 14 20 Este 37 Este -- 1009.4 -1.4 58
2017-11-14 12:00:00 12.8 22 Sudeste 30 Sudeste -- 1010.3 -0.2 62
2017-11-14 11:00:00 11.6 20 Sudeste 30 Sudeste 0 1010.5 0.3 65
2017-11-14 10:00:00 9.8 12 Sudeste 18 Sudeste 0 1010.8 0.8 75
2017-11-14 09:00:00 5.2 10 Sur 17 Sur 0 1010.5 0.4 88
2017-11-14 08:00:00 3.8 9 Sur 30 Sur 0 1010.2 0 93
2017-11-14 07:00:00 3.8 10 Sur 13 Sur 0 1010 -0.5 92
2017-11-14 06:00:00 4.1 7 Sur 11 Sur 0 1010.1 -1 93
2017-11-14 05:00:00 3.7 7 Sur 11 Sur 0 1010.2 -1.1 92
2017-11-14 04:00:00 4.3 8 Sur 11 Sur 0 1010.5 -1 91
2017-11-14 03:00:00 5.3 8 Sur 11 Sur 0 1011.1 -0.9 90
2017-11-14 02:00:00 5.4 8 Sur 15 Sur 0 1011.3 -1.2 88
2017-11-14 01:00:00 4.9 11 Sur 17 Sur 0 1011.5 -1.2 88
2017-11-14 00:00:00 5.4 8 Sur 11 Sudeste 0 1012 -0.5 86
2017-11-13 23:00:00 7.3 8 Sur 11 Sur 0 1012.5 0.1 81
2017-11-13 22:00:00 7.7 5 Sur 21 Sur 0 1012.7 0.4 83
2017-11-13 21:00:00 7 7 Sudeste 18 Sur 0 1012.5 0.6 78
2017-11-13 20:00:00 7.5 5 Sudeste 11 Sudeste 0 1012.4 0.7 78
2017-11-13 19:00:00 8.3 6 Sudeste 17 Este 0 1012.3 0.7 74
2017-11-13 18:00:00 10.3 9 Este 18 Sudeste 0 1011.9 0 65
2017-11-13 17:00:00 12.3 9 Este 21 Este 0 1011.7 -0.4 57
2017-11-13 16:00:00 13.3 12 Este 24 Este 0 1011.6 -0.9 55
2017-11-13 15:00:00 13.7 7 Este 28 Este 0 1011.9 -0.6 54
2017-11-13 14:00:00 12.6 8 Este 22 Este 0 1012.1 -0.4 60
2017-11-13 13:00:00 12.8 4 Nordeste 28 Este 0 1012.5 0 62
2017-11-13 12:00:00 12.7 6 Este 22 Este 0 1012.5 0.5 66
2017-11-13 11:00:00 14.3 6 Este 21 Este 0 1012.5 1.1 57
2017-11-13 10:00:00 12.2 5 Este 21 Este 0 1012.5 1.4 62
2017-11-13 09:00:00 11.7 2 Este 17 Nordeste 0 1012 0.9 71
2017-11-13 08:00:00 11.4 2 Este 17 Nordeste 0 1011.4 0.4 75
2017-11-13 07:00:00 11.6 0 Calma 15 Nordeste 0 1011.1 0 67
2017-11-13 06:00:00 12 6 Nordeste 21 Este 0 1011.1 -0.2 68
2017-11-13 05:00:00 12 6 Nordeste 18 Sudeste 0 1011 -0.1 71
2017-11-13 04:00:00 12.2 4 Nordeste 18 Nordeste 0 1011.1 -0.1 70
2017-11-13 03:00:00 12.2 4 Nordeste 15 Este 0 1011.3 0.7 72
2017-11-13 02:00:00 12.3 3 Este 26 Nordeste 0 1011.1 0.8 76
2017-11-13 01:00:00 12.5 9 Nordeste 32 Nordeste 0 1011.2 1.4 83
2017-11-13 00:00:00 12.8 13 Nordeste 32 Nordeste 1.1 1010.6 0.9 91
2017-11-12 23:00:00 13.1 0 Calma 17 Sudoeste 0.4 1010.3 1 97
2017-11-12 22:00:00 13.1 3 Oeste 15 Oeste 1.2 1009.8 0.8 97
2017-11-12 21:00:00 13.4 8 Oeste 22 Oeste 0.9 1009.7 1.1 96
2017-11-12 20:00:00 13.5 13 Oeste 24 Noroeste 0.1 1009.3 0.7 95
2017-11-12 19:00:00 13.5 14 Oeste 26 Oeste 0 1009 0.9 94
2017-11-12 18:00:00 13.6 17 Oeste 33 Oeste 0.1 1008.6 0.8 96
2017-11-12 17:00:00 13.9 27 Oeste 39 Oeste 0 1008.6 0.4 94
2017-11-12 16:00:00 14 21 Oeste 39 Oeste 0 1008.1 -0.1 93
2017-11-12 15:00:00 15.8 23 Oeste 37 Noroeste 0 1007.8 -1 78
2017-11-12 14:00:00 15.5 17 Oeste 28 Oeste 0 1008.2 -0.6 77
2017-11-12 13:00:00 15.5 13 Sudoeste 37 Oeste 0 1008.2 -0.8 71
2017-11-12 12:00:00 15.7 19 Oeste 33 Oeste 0 1008.8 -0.7 70
2017-11-12 11:00:00 13.7 17 Sudoeste 35 Sudoeste 0 1008.8 -1.1 70
2017-11-12 10:00:00 12.3 20 Sudoeste 37 Sudoeste 0 1009 -0.9 73
2017-11-12 09:00:00 11.4 21 Sudoeste 35 Sudoeste 0 1009.5 -0.2 76
2017-11-12 08:00:00 11.7 14 Sudoeste 30 Oeste 0 1009.9 -0.1 77
2017-11-12 07:00:00 11.3 12 Sudoeste 22 Oeste 0 1009.9 -0.6 78
2017-11-12 06:00:00 11.2 14 Sudoeste 24 Sudoeste 0 1009.7 -1.1 78
2017-11-12 05:00:00 11.4 12 Sudoeste 24 Sur 0 1010 -1.5 77
2017-11-12 04:00:00 11.8 10 Sudoeste 24 Sudoeste 0 1010.5 -1.5 78
2017-11-12 03:00:00 11.6 15 Sudoeste 22 Sudoeste 0 1010.8 -1.5 78
2017-11-12 02:00:00 11.9 6 Sudoeste 18 Sudoeste 0 1011.5 -1.1 79
2017-11-12 01:00:00 12 6 Sudoeste 28 Oeste 0 1012 -0.9 82
2017-11-12 00:00:00 12.2 10 Sudoeste 17 Sudoeste 0 1012.3 -0.7 80
2017-11-11 23:00:00 12.3 8 Sudoeste 18 Sur 0 1012.6 -0.6 81
2017-11-11 22:00:00 13.3 8 Sudoeste 26 Oeste 0 1012.9 -0.3 83
2017-11-11 21:00:00 13.6 17 Oeste 24 Oeste 0 1013 -0.5 85
2017-11-11 20:00:00 13.3 8 Oeste 21 Oeste 0 1013.2 -0.6 84
2017-11-11 19:00:00 13.6 13 Oeste 21 Oeste 0 1013.2 -1.1 85
2017-11-11 18:00:00 14 6 Oeste 22 Oeste 0 1013.5 -0.9 82
2017-11-11 17:00:00 14.1 9 Oeste 30 Noroeste 0 1013.8 -1.2 82
2017-11-11 16:00:00 14.4 21 Oeste 32 Oeste 0 1014.3 -1.5 81
2017-11-11 15:00:00 15.5 10 Oeste 22 Sudoeste 0 1014.4 -1.8 71
2017-11-11 14:00:00 15 15 Sudoeste 24 Oeste 0 1015 -1.4 74
2017-11-11 13:00:00 14.5 13 Oeste 32 Oeste 0 1015.8 -0.7 74
2017-11-11 12:00:00 13.5 13 Sudoeste 22 Sudoeste 0 1016.2 -0.3 80
2017-11-11 11:00:00 12.4 10 Sudoeste 21 Sudoeste 0 1016.4 0.2 85
2017-11-11 10:00:00 11.9 13 Sudoeste 22 Sur 0 1016.5 0.4 86
2017-11-11 09:00:00 11.8 7 Sudoeste 30 Sur 0 1016.5 0.4 87
2017-11-11 08:00:00 11.7 6 Sudoeste 26 Oeste 0 1016.2 0 88
2017-11-11 07:00:00 11.4 11 Sudoeste 22 Sudoeste 0 1016.1 -0.7 90
2017-11-11 06:00:00 11.4 15 Sudoeste 26 Sudoeste 0 1016.1 -1.1 91
2017-11-11 05:00:00 11.2 13 Sudoeste 26 Sudoeste 0 1016.2 -1.2 93
2017-11-11 04:00:00 11 10 Sudoeste 18 Sudoeste 0 1016.8 -1.2 95
2017-11-11 03:00:00 11.3 8 Sudoeste 17 Oeste 0.1 1017.2 -1.1 95
2017-11-11 02:00:00 10.9 4 Sudoeste 13 Sur 0 1017.4 -1.3 95
2017-11-11 01:00:00 11.4 9 Sudoeste 21 Sudoeste 0 1018 -1 94
2017-11-11 00:00:00 11.6 10 Sudoeste 18 Sudoeste 0 1018.3 -0.4 94
2017-11-10 23:00:00 11.8 6 Sur 17 Sur 0.1 1018.7 0 95
2017-11-10 22:00:00 12.3 11 Oeste 22 Oeste 0.4 1019 0.4 93
2017-11-10 21:00:00 12.6 5 Sudoeste 18 Sudoeste 0 1018.7 0.4 89
2017-11-10 20:00:00 13 4 Sudoeste 11 Oeste 0 1018.7 0.7 87
2017-11-10 19:00:00 13.4 4 Sudoeste 22 Sudoeste 0 1018.6 0.7 84
2017-11-10 18:00:00 13.7 7 Noroeste 18 Oeste 0 1018.3 0.3 84
2017-11-10 17:00:00 14.2 9 Noroeste 24 Noroeste 0 1018 -0.1 88
2017-11-10 16:00:00 13.9 8 Oeste 18 Noroeste 0.1 1017.9 -0.7 91
2017-11-10 15:00:00 14.4 11 Noroeste 21 Noroeste 0.2 1018 -1 87
2017-11-10 14:00:00 15.5 8 Oeste 26 Oeste 0 1018.1 -0.5 80
2017-11-10 13:00:00 14.9 4 Noroeste 17 Oeste 0 1018.6 0.2 85
2017-11-10 12:00:00 14.2 0 Calma 26 Noroeste 0 1019 0.8 93
2017-11-10 11:00:00 14.8 4 Noroeste 22 Noroeste 0 1018.6 1.2 87
2017-11-10 10:00:00 14.1 3 Oeste 21 Oeste 0 1018.4 1.6 93
2017-11-10 09:00:00 13.2 5 Sudoeste 18 Sur 0.6 1018.2 1.8 96
2017-11-10 08:00:00 13.1 6 Sudoeste 32 Oeste 0.2 1017.4 1.3 97
2017-11-10 07:00:00 12.7 4 Este 18 Noroeste 0.4 1016.8 0.5 98
2017-11-10 06:00:00 11.9 5 Oeste 13 Sudoeste 1.8 1016.4 -0.5 98
2017-11-10 05:00:00 11.4 6 Sudoeste 13 Sudoeste 0.6 1016.1 -0.9 98
2017-11-10 04:00:00 11.6 4 Sudoeste 18 Oeste 1.2 1016.3 -1.1 98
2017-11-10 03:00:00 11.7 11 Oeste 22 Oeste 0.8 1016.9 -0.3 97
2017-11-10 02:00:00 11.3 6 Sudoeste 15 Oeste 0.3 1017 -0.1 97
2017-11-10 01:00:00 11.2 8 Sudoeste 18 Sudoeste 0.4 1017.4 0.4 95
2017-11-10 00:00:00 11.6 7 Oeste 24 Oeste 0 1017.2 0.4 95
2017-11-09 23:00:00 10.9 14 Oeste 26 Oeste 0.5 1017.1 0.5 96
2017-11-09 22:00:00 11 13 Oeste 26 Oeste 0.1 1017 0.7 92
2017-11-09 21:00:00 11.1 7 Sudoeste 18 Sudoeste 0 1016.8 0.8 89
2017-11-09 20:00:00 10.9 8 Oeste 15 Sudoeste 0 1016.6 0.8 88
2017-11-09 19:00:00 11.3 5 Sudoeste 9 Sudoeste 0 1016.3 0.6 85
2017-11-09 18:00:00 11.5 5 Sudoeste 21 Sudoeste 0 1016 0.4 85
2017-11-09 17:00:00 12.1 3 Oeste 8 Sur 0 1015.8 0.1 83
2017-11-09 16:00:00 12.2 0 Calma 8 Noroeste 0 1015.7 -0.3 84
2017-11-09 15:00:00 11.9 2 Oeste 18 Sudoeste 0 1015.6 -0.9 84
2017-11-09 14:00:00 11.8 0 Calma 26 Sudoeste 0 1015.7 -0.6 82
2017-11-09 13:00:00 10.6 6 Sudoeste 17 Sudoeste 0 1016 -0.4 84
2017-11-09 12:00:00 9 12 Sudoeste 21 Sur 0 1016.5 0.6 88
2017-11-09 11:00:00 7.7 15 Sur 39 Sudoeste 0.3 1016.3 1.1 89
2017-11-09 10:00:00 7.4 15 Sudoeste 22 Sur 0.4 1016.4 1.5 87
2017-11-09 09:00:00 7.3 10 Sudoeste 26 Sudoeste 0 1015.9 1.4 86
2017-11-09 08:00:00 6.8 15 Sur 30 Sudoeste 0 1015.2 0.7 86
2017-11-09 07:00:00 6.8 18 Sudoeste 26 Sudoeste 0 1014.9 0.3 85
2017-11-09 06:00:00 6.3 15 Sudoeste 24 Sur 0 1014.5 0 87
2017-11-09 05:00:00 6.6 18 Sudoeste 28 Sudoeste 0 1014.5 0 87
2017-11-09 04:00:00 6.9 17 Sudoeste 26 Sur 0 1014.6 -0.1 87
2017-11-09 03:00:00 6.7 15 Sudoeste 26 Sudoeste 0 1014.5 -0.3 88
2017-11-09 02:00:00 6.8 15 Sudoeste 24 Sudoeste 0 1014.5 -0.5 90
2017-11-09 01:00:00 6.9 10 Sudoeste 21 Sur 0 1014.7 0 92
2017-11-09 00:00:00 7.9 11 Sudoeste 21 Sudoeste 0.4 1014.8 0.4 91
2017-11-08 23:00:00 7.9 11 Sur 18 Sur 0 1015 0.7 90
2017-11-08 22:00:00 8.3 4 Sur 22 Noroeste 0 1014.7 0.7 86
2017-11-08 21:00:00 10.4 15 Noroeste 28 Noroeste 0 1014.4 1.1 79
2017-11-08 20:00:00 10.5 3 Sur 18 Norte 0 1014.3 1.4 68
2017-11-08 19:00:00 10.7 3 Oeste 22 Este 0 1014 1.4 69
2017-11-08 18:00:00 10.4 4 Nordeste 26 Nordeste 0.2 1013.3 0.6 79
2017-11-08 17:00:00 10.9 5 Noroeste 21 Noroeste 0.1 1012.9 0.5 81
2017-11-08 16:00:00 9.9 8 Nordeste 37 Este 1.8 1012.6 0.2 87
2017-11-08 15:00:00 10.8 13 Noroeste 30 Nordeste 0.4 1012.7 -0.2 82
2017-11-08 14:00:00 10.6 6 Norte 37 Oeste 0.9 1012.4 -0.4 83
2017-11-08 13:00:00 10.8 18 Oeste 33 Oeste 0.6 1012.4 -1 87
2017-11-08 12:00:00 10.1 9 Oeste 26 Sudoeste 1.7 1012.9 0.6 89
2017-11-08 11:00:00 10.4 13 Sudoeste 22 Sur 0.9 1012.8 0.5 89
2017-11-08 10:00:00 8.5 16 Oeste 24 Oeste 10.4 1013.4 1.4 93
2017-11-08 09:00:00 8.2 16 Sudoeste 26 Sudoeste 0.1 1012.3 0.5 91
2017-11-08 08:00:00 8.2 5 Sudoeste 33 Oeste 0.2 1012.3 0.5 90
2017-11-08 07:00:00 8.6 5 Oeste 24 Oeste 0.1 1012 0.1 86
2017-11-08 06:00:00 10 7 Sudoeste 33 Oeste 0 1011.8 0 72
2017-11-08 05:00:00 11.2 7 Oeste 28 Norte 0 1011.8 0.2 68
2017-11-08 04:00:00 11.7 6 Noroeste 30 Noroeste 0 1011.9 0.8 61
2017-11-08 03:00:00 11.8 5 Oeste 30 Noroeste 0 1011.8 0.8 59
2017-11-08 02:00:00 12.2 7 Noroeste 28 Oeste 0 1011.6 0.9 63
2017-11-08 01:00:00 12.2 6 Oeste 26 Noroeste 0 1011.1 0.8 68
2017-11-08 00:00:00 12 8 Oeste 28 Noroeste 0 1011 1.1 77
2017-11-07 23:00:00 12 4 Nordeste 22 Norte 0 1010.7 1.3 75
2017-11-07 22:00:00 12.1 7 Oeste 24 Norte 0 1010.3 1.7 77
2017-11-07 21:00:00 12.2 0 Calma 26 Noroeste 0 1009.9 2 76
2017-11-07 20:00:00 13 9 Noroeste 33 Noroeste 0 1009.4 2.4 71
2017-11-07 19:00:00 13.1 9 Noroeste 26 Oeste 0 1008.6 1.8 76
2017-11-07 18:00:00 12.4 5 Norte 32 Oeste 0.5 1007.9 1.4 92
2017-11-07 17:00:00 11.8 17 Oeste 39 Oeste 1.2 1007 0.6 94
2017-11-07 16:00:00 12.8 19 Oeste 30 Oeste 0 1006.8 0.4 84
2017-11-07 15:00:00 12.2 8 Sudoeste 30 Oeste 0 1006.5 0 84
2017-11-07 14:00:00 12.3 0 Calma 17 Sudoeste 0 1006.4 -0.4 81
2017-11-07 13:00:00 12.3 7 Sudoeste 13 Sudoeste 0 1006.4 -0.6 77
2017-11-07 12:00:00 11.9 6 Sur 15 Sudoeste 0 1006.5 -0.6 76
2017-11-07 11:00:00 11.5 6 Sudoeste 17 Sur 0 1006.8 0.4 77
2017-11-07 10:00:00 8.7 10 Sur 18 Sudoeste 0 1007 0.3 85
2017-11-07 09:00:00 6.8 14 Sudoeste 24 Sudoeste 0 1007.1 0.8 91
2017-11-07 08:00:00 6 9 Sudoeste 28 Sudoeste 0 1006.4 0.1 93
2017-11-07 07:00:00 6.1 16 Sudoeste 26 Sudoeste 0 1006.7 0.1 96
2017-11-07 06:00:00 6.2 15 Sur 22 Sudoeste 0 1006.3 -0.9 95
2017-11-07 05:00:00 6.7 17 Sur 24 Sur 0 1006.3 -1.7 94
2017-11-07 04:00:00 7.3 15 Sur 24 Sudoeste 0 1006.6 -2.1 95
2017-11-07 03:00:00 7.3 17 Sur 22 Sur 0 1007.2 -2 93
2017-11-07 02:00:00 7.6 15 Sur 21 Sur 0 1008 -1.8 93
2017-11-07 01:00:00 7.6 12 Sur 17 Sur 0 1008.7 -1.3 92
2017-11-07 00:00:00 7.8 9 Sur 15 Sur 0 1009.2 -1.1 91
2017-11-06 23:00:00 7.5 8 Sur 13 Sur 0 1009.8 -0.9 92
2017-11-06 22:00:00 7.3 9 Sur 24 Sur 0 1010 -1 93
2017-11-06 21:00:00 6.7 8 Sudeste 15 Sudeste 0 1010.3 -0.6 91
2017-11-06 20:00:00 7.8 7 Sudeste 13 Sudeste 0 1010.7 -0.4 92
2017-11-06 19:00:00 9.9 -- -- -- -- 0 1011 -0.1 88
2017-11-06 18:00:00 12.3 6 Este 11 Este 0 1010.9 -0.5 77
2017-11-06 17:00:00 13 3 Este 8 Este 0 1011.1 -0.9 76
2017-11-06 16:00:00 14.1 0 Calma 11 Este 0 1011.1 -1.7 69
2017-11-06 15:00:00 15.7 0 Calma 5 Sudeste 0 1011.4 -2.2 66
2017-11-06 14:00:00 14.4 2 Norte 11 Sur 0 1012 -1.7 69
2017-11-06 13:00:00 14.5 4 Sur 13 Sur 0 1012.8 -1.1 75
2017-11-06 12:00:00 11.9 8 Sur 24 Sur 0 1013.6 -0.3 85
2017-11-06 11:00:00 11.4 9 Sudoeste 30 Sudoeste 0 1013.7 0.1 89
2017-11-06 10:00:00 10.3 14 Sur 24 Sudoeste 0.1 1013.9 0.4 93
2017-11-06 09:00:00 9.7 16 Sur 26 Sur 0 1013.9 0.4 94
2017-11-06 08:00:00 9.1 3 Sudoeste 28 Sudoeste 0 1013.6 0.1 95
2017-11-06 07:00:00 8.8 11 Sudoeste 18 Sudoeste 0 1013.5 0.1 95
2017-11-06 06:00:00 9.9 4 Sudoeste 24 Sudoeste 0.4 1013.5 -0.2 93
2017-11-06 05:00:00 9.7 8 Sudoeste 15 Sudoeste 0 1013.5 -0.5 95
2017-11-06 04:00:00 9.9 9 Sudoeste 17 Sudoeste 0 1013.4 -0.6 94
2017-11-06 03:00:00 10 10 Sudoeste 26 Oeste 0 1013.7 -0.3 94
2017-11-06 02:00:00 9.6 10 Oeste 24 Noroeste 0 1014 0.1 96
2017-11-06 01:00:00 9.5 3 Sudoeste 17 Sudoeste 0 1014 0.2 95
2017-11-06 00:00:00 10.4 4 Sudoeste 21 Oeste 0.4 1014 0.7 95
2017-11-05 23:00:00 10.1 8 Sudoeste 15 Sudoeste 0.7 1013.9 0.7 94
2017-11-05 22:00:00 10.6 6 Sudoeste 22 Oeste 0.8 1013.8 0.9 92
2017-11-05 21:00:00 10.6 9 Sudoeste 17 Sudoeste 0 1013.3 0.5 92
2017-11-05 20:00:00 10.8 8 Sudoeste 22 Sudoeste 0 1013.2 0.7 90
2017-11-05 19:00:00 10.5 7 Sudoeste 22 Oeste 0 1012.9 0.6 92
2017-11-05 18:00:00 11.2 8 Noroeste 30 Noroeste 1.1 1012.8 0.8 84
2017-11-05 17:00:00 12.1 9 Oeste 28 Oeste 0 1012.5 0.1 82
2017-11-05 16:00:00 12.5 15 Noroeste 35 Noroeste 0.3 1012.3 0.1 81
2017-11-05 15:00:00 13.6 14 Oeste 33 Oeste 0 1012 -0.1 74
2017-11-05 14:00:00 12.3 17 Oeste 37 Noroeste 0.4 1012.4 0.2 81
2017-11-05 13:00:00 11.7 11 Oeste 33 Oeste 2.2 1012.2 0.6 86
2017-11-05 12:00:00 12.7 20 Oeste 32 Oeste 0.5 1012.1 1.4 86
2017-11-05 11:00:00 11.6 8 Oeste 37 Oeste 1.7 1012.2 2.2 85
2017-11-05 10:00:00 10.9 10 Oeste 28 Sudoeste 1.4 1011.6 2.1 88
2017-11-05 09:00:00 10.5 0 Calma 30 Oeste 0.7 1010.7 1.6 86
2017-11-05 08:00:00 12.4 15 Noroeste 35 Noroeste 0 1010 1.3 72
2017-11-05 07:00:00 12.2 15 Noroeste 35 Noroeste 0.2 1009.5 1 75
2017-11-05 06:00:00 10.8 12 Noroeste 32 Noroeste 0.4 1009.1 0.8 82
2017-11-05 05:00:00 11.5 5 Noroeste 37 Oeste 0.1 1008.7 0.7 73
2017-11-05 04:00:00 12.8 12 Noroeste 37 Oeste 0 1008.5 1.1 72
2017-11-05 03:00:00 13.1 6 Oeste 24 Norte 0 1008.3 1.7 72
2017-11-05 02:00:00 13.3 6 Oeste 26 Noroeste 0 1008 2.1 73
2017-11-05 01:00:00 13.4 10 Noroeste 37 Oeste 0 1007.4 2.4 68
2017-11-05 00:00:00 13.5 9 Noroeste 30 Oeste 0 1006.6 2.7 68
2017-11-04 23:00:00 13.6 8 Oeste 33 Oeste 0 1005.9 2.9 76
2017-11-04 22:00:00 13.3 9 Oeste 30 Oeste 0.1 1005 2.9 83
2017-11-04 21:00:00 13.6 12 Noroeste 33 Noroeste 0.6 1003.9 3.1 89
2017-11-04 20:00:00 13.6 5 Oeste 18 Norte 0.5 1003 3.1 92
2017-11-04 19:00:00 13.9 5 Sudoeste 24 Noroeste 0 1002.1 3.1 88
2017-11-04 18:00:00 14 8 Noroeste 37 Oeste 4.2 1000.8 2.3 96
2017-11-04 17:00:00 14 19 Oeste 35 Oeste 0.9 999.9 1.8 92
2017-11-04 16:00:00 14.6 13 Oeste 30 Oeste 0.1 999 0.9 89
2017-11-04 15:00:00 14.6 14 Oeste 21 Oeste 0.1 998.5 0.5 95
2017-11-04 14:00:00 15.5 7 Noroeste 18 Oeste 0 998.1 0.7 90
2017-11-04 13:00:00 15.7 13 Noroeste 21 Noroeste 0 998.1 0.9 88
2017-11-04 12:00:00 16.5 10 Oeste 18 Oeste 0 998 1.4 84
2017-11-04 11:00:00 14.7 5 Sudoeste 13 Sudoeste 0 997.4 1.5 87
2017-11-04 10:00:00 12.9 4 Sudoeste 26 Sudoeste 0 997.2 1.5 91
2017-11-04 09:00:00 12.3 8 Sudoeste 15 Sur 0 996.6 1.1 91
2017-11-04 08:00:00 11.8 3 Sudoeste 15 Sudoeste 0 995.9 0.7 92
2017-11-04 07:00:00 11.8 10 Sudoeste 18 Sudoeste 0 995.7 0.6 93
2017-11-04 06:00:00 12 12 Sudoeste 21 Sudoeste 0 995.5 0.4 93
2017-11-04 05:00:00 11.9 13 Sudoeste 21 Sur 0 995.2 0 94
2017-11-04 04:00:00 11.6 8 Sudoeste 17 Sudoeste 0 995.1 -0.2 95
2017-11-04 03:00:00 11.3 2 Sur 13 Sudoeste 0 995.1 -0.2 94
2017-11-04 02:00:00 12.3 10 Sudoeste 21 Sudoeste 0 995.2 -0.2 93
2017-11-04 01:00:00 13.1 13 Sudoeste 22 Sudoeste 0 995.3 -0.2 90
2017-11-04 00:00:00 13 17 Sur 26 Sur 0 995.3 -0.4 92
2017-11-03 23:00:00 13.2 15 Sudoeste 24 Sur 0 995.4 -0.4 91
2017-11-03 22:00:00 13.5 13 Sur 21 Sudoeste 0 995.5 -0.2 90
2017-11-03 21:00:00 13.4 13 Sur 21 Sur 0 995.7 0.5 92
2017-11-03 20:00:00 13.7 10 Sur 17 Sur 0 995.8 0.8 92
2017-11-03 19:00:00 13.8 5 Sur 18 Sur 0 995.7 0.8 92
2017-11-03 18:00:00 14.5 4 Sur 21 Sudoeste 0.8 995.2 0.1 91
2017-11-03 17:00:00 15.4 3 Sudoeste 8 Oeste 0 995 0.2 85
2017-11-03 16:00:00 15.7 2 Noroeste 11 Noroeste 0 994.9 -0.4 86
2017-11-03 15:00:00 16.8 4 Norte 8 Noroeste 0 995.1 -0.5 84
2017-11-03 14:00:00 18.3 4 Norte 11 Norte 0 994.8 -0.8 73
2017-11-03 13:00:00 18 6 Norte 15 Norte 0 995.3 -0.5 76
2017-11-03 12:00:00 17.4 7 Sudoeste 18 Sudoeste 0 995.6 -0.1 72
2017-11-03 11:00:00 17.1 11 Sudoeste 30 Sudoeste 0 995.6 0.2 76
2017-11-03 10:00:00 13.9 15 Sudoeste 28 Sudoeste 0 995.8 0 90
2017-11-03 09:00:00 12.8 17 Sudoeste 26 Sur 0.1 995.7 0.3 94
2017-11-03 08:00:00 12.9 2 Sudeste 24 Sudoeste 1.6 995.4 -0.4 94
2017-11-03 07:00:00 12.8 17 Sudoeste 30 Sudoeste 0 995.8 -0.4 93
2017-11-03 06:00:00 13.2 5 Sudoeste 15 Sudoeste 0 995.4 -0.9 92
2017-11-03 05:00:00 13.3 9 Sudoeste 17 Sudoeste 0 995.8 -0.8 92
2017-11-03 04:00:00 13.6 3 Sudoeste 15 Sudoeste 0 996.2 -0.8 91
2017-11-03 03:00:00 14 6 Sudoeste 21 Sudoeste 0 996.3 -1 89
2017-11-03 02:00:00 14.1 9 Sudoeste 22 Sudoeste 0 996.6 -1.3 90
2017-11-03 01:00:00 13.8 11 Sudoeste 24 Sur 0 997 -1.1 93
2017-11-03 00:00:00 14.1 11 Sudoeste 22 Sudoeste 0 997.3 -1 94
2017-11-02 23:00:00 14.5 7 Sudoeste 18 Sudoeste 0 997.9 -0.5 93
2017-11-02 22:00:00 14.7 12 Sudoeste 18 Sudoeste 0 998.1 -0.4 94
2017-11-02 21:00:00 14.4 7 Sudoeste 13 Sudoeste 0 998.3 -0.2 95
2017-11-02 20:00:00 14.6 4 Sudeste -- -- 0.1 998.4 0.4 96
2017-11-02 19:00:00 15.3 5 Sudeste 11 Sudeste 1.3 998.5 0.7 95
2017-11-02 18:00:00 16 3 Sur 18 Sur 0.5 998.5 0.8 93
2017-11-02 17:00:00 16.1 13 Oeste 30 Oeste 0 998 0 95
2017-11-02 16:00:00 16.5 14 Noroeste 28 Noroeste 0 997.8 -0.5 93
2017-11-02 15:00:00 17.8 12 Noroeste 26 Oeste 0 997.7 -1.2 87
2017-11-02 14:00:00 17.9 15 Noroeste 28 Oeste 0 998 -1.2 83
2017-11-02 13:00:00 19.4 7 Noroeste 15 Noroeste 0 998.3 -0.9 71
2017-11-02 12:00:00 18.3 4 Oeste 8 Noroeste 0 998.9 0.1 75
2017-11-02 11:00:00 17.1 0 Calma 13 Oeste 0 999.2 1 73
2017-11-02 10:00:00 15.5 4 Sudoeste 13 Sudoeste 0 999.2 1.2 71
2017-11-02 09:00:00 15.2 3 Sur 18 Oeste 0 998.8 0.9 74
2017-11-02 08:00:00 14.8 10 Oeste 21 Sudoeste 0 998.2 0.3 73
2017-11-02 07:00:00 15.1 16 Sudoeste 28 Sudoeste 0 998 -0.3 67
2017-11-02 06:00:00 15.3 17 Sudoeste 32 Sur 0 997.9 -0.7 67
2017-11-02 05:00:00 14.6 17 Sudoeste 24 Sudoeste 0 997.9 -0.8 70
2017-11-02 04:00:00 15.4 14 Sudoeste 26 Sudoeste 0 998.3 -0.9 64
2017-11-02 03:00:00 15 14 Sudoeste 28 Sur 0 998.6 -0.8 69
2017-11-02 02:00:00 16.3 18 Sur 28 Sur 0 998.7 -1.1 62
2017-11-02 01:00:00 16 15 Sur 24 Sudoeste 0 999.2 -1 63
2017-11-02 00:00:00 16.4 15 Sur 22 Sur 0 999.4 -0.7 63
2017-11-01 23:00:00 16.1 15 Sudoeste 22 Sudoeste 0 999.8 -0.4 67
2017-11-01 22:00:00 16.2 13 Sur 24 Sudoeste 0 1000.2 -0.1 69
2017-11-01 21:00:00 16.3 2 Sur 32 Sudoeste 0 1000.1 0 71
2017-11-01 20:00:00 16 7 Sudoeste 15 Sudoeste 0 1000.2 0 77
2017-11-01 19:00:00 14.3 0 Calma 5 Sudoeste 0 1000.3 0.3 80
2017-11-01 18:00:00 15.7 3 Sudoeste 15 Sudoeste 0 1000.1 0.2 78
2017-11-01 17:00:00 17.7 0 Calma 5 Sudoeste 0 1000.2 0.1 77
2017-11-01 16:00:00 19.7 0 Calma 8 Sudoeste 0 1000 -0.6 67
2017-11-01 15:00:00 18 0 Calma 8 Oeste 0 999.9 -1.6 67
2017-11-01 14:00:00 21.1 0 Calma 18 Sur 0 1000.1 -1.6 56
2017-11-01 13:00:00 20.1 9 Sudoeste 24 Sudoeste 0 1000.6 -1.1 51
2017-11-01 12:00:00 15.2 14 Sudoeste 28 Sur 0 1001.5 0.2 56
2017-11-01 11:00:00 13.9 18 Sudoeste 28 Sur 0 1001.7 1 59
2017-11-01 10:00:00 13.1 18 Sudoeste 30 Sudoeste 0 1001.7 1.4 60
2017-11-01 09:00:00 11.4 21 Sudoeste 32 Sur 0 1001.3 0.8 64
2017-11-01 08:00:00 11.1 12 Sudoeste 33 Sudoeste 0 1000.7 -0.3 65
2017-11-01 07:00:00 10.9 22 Sudoeste 33 Sudoeste 0 1000.3 -0.8 66
2017-11-01 06:00:00 9.9 19 Sudoeste 32 Sur 0 1000.5 -0.8 73
2017-11-01 05:00:00 10.6 20 Sudoeste 30 Sur 0 1001 -0.5 69
2017-11-01 04:00:00 10.4 15 Sudoeste 30 Sur 0 1001.1 -0.8 74
2017-11-01 03:00:00 10.4 21 Sudoeste 30 Sudoeste 0 1001.3 -0.8 77
2017-11-01 02:00:00 10.1 19 Sudoeste 30 Sudoeste 0 1001.5 -1.1 83
2017-11-01 01:00:00 10.3 20 Sur 30 Sur 0 1001.9 -1 85
2017-11-01 00:00:00 9.5 15 Sur 26 Sudoeste 0 1002.1 -1.1 89
2017-10-31 23:00:00 10.2 16 Sudoeste 24 Sudoeste 0 1002.6 -0.7 87
2017-10-31 22:00:00 10.2 14 Sudoeste 22 Sur 0 1002.9 -0.2 87
2017-10-31 21:00:00 10 7 Sur 21 Sur 0 1003.2 0.1 89
2017-10-31 20:00:00 8.5 10 Sudeste 18 Sudeste 0 1003.3 0.1 90
2017-10-31 19:00:00 9.9 12 Sudeste 18 Sudeste 0 1003.1 -0.4 87
2017-10-31 18:00:00 12.9 12 Este 18 Este 0 1003.1 -0.5 76
2017-10-31 17:00:00 14.2 9 Este 24 Este 0 1003.2 -1 69
2017-10-31 16:00:00 15.4 13 Este 24 Este 0 1003.5 -1.4 64
2017-10-31 15:00:00 15.6 15 Este 26 Sudeste 0 1003.6 -2.4 62
2017-10-31 14:00:00 16.3 13 Este 30 Sudeste 0 1004.2 -2.4 57
2017-10-31 13:00:00 15.8 19 Sudeste 35 Sudeste 0 1004.9 -2.2 59
2017-10-31 12:00:00 14.6 20 Sudeste 37 Sudeste 0 1006 -1.1 63
2017-10-31 11:00:00 14.1 25 Sudeste 37 Sudeste 0 1006.6 -0.4 63
2017-10-31 10:00:00 13.3 18 Sudeste 26 Sudeste 0 1007.1 0.4 65
2017-10-31 09:00:00 11.4 14 Sudeste 18 Sudeste 0 1007.1 0 71
2017-10-31 08:00:00 9.8 11 Sudeste 28 Sur 0 1007 -0.2 78
2017-10-31 07:00:00 9.5 14 Sudeste 18 Sudeste 0 1006.7 -0.5 80
2017-10-31 06:00:00 8.2 12 Sudeste 17 Sudeste 0 1007.1 -0.4 81
2017-10-31 05:00:00 8.7 12 Sudeste 18 Sudeste 0 1007.2 -0.8 80
2017-10-31 04:00:00 8.4 14 Sudeste 18 Sudeste 0 1007.2 -1.3 83
2017-10-31 03:00:00 8.2 16 Sudeste 21 Sudeste 0 1007.5 -1.4 88
2017-10-31 02:00:00 8.6 13 Sudeste 18 Sudeste 0 1008 -1.3 89
2017-10-31 01:00:00 9.4 15 Sudeste 22 Sudeste 0 1008.5 -0.8 90
2017-10-31 00:00:00 11.2 15 Sudeste 26 Este 0 1008.9 -0.3 86
2017-10-30 23:00:00 10.6 11 Sudeste 30 Este 0 1009.3 0.2 87
2017-10-30 22:00:00 12.9 18 Este 37 Este 0 1009.3 0.1 78
2017-10-30 21:00:00 13.4 17 Este 33 Este 0 1009.2 0.7 78
2017-10-30 20:00:00 13.7 18 Este 33 Sudeste 0 1009.1 0.7 79
2017-10-30 19:00:00 14 18 Este 33 Este 0 1009.2 0.9 80
2017-10-30 18:00:00 14.4 17 Este 35 Este 0 1008.5 0.2 81
2017-10-30 17:00:00 14.8 19 Este 39 Este 0 1008.4 -0.2 86
2017-10-30 16:00:00 15.9 9 Este 24 Este 0 1008.3 -0.9 76
2017-10-30 15:00:00 16.5 14 Este 30 Este 0 1008.3 -1.4 81
2017-10-30 14:00:00 15 2 Este 22 Este 0.8 1008.6 -1 94
2017-10-30 13:00:00 15.5 10 Este 22 Este 0.1 1009.2 -0.6 91
2017-10-30 12:00:00 14.4 14 Este 24 Este 0.5 1009.7 -0.1 93
2017-10-30 11:00:00 15.6 10 Sudeste 18 Sudeste 0 1009.6 0.1 91
2017-10-30 10:00:00 14.9 5 Sudeste 8 Sudeste 0 1009.8 0.4 93
2017-10-30 09:00:00 13.8 4 Sudeste 18 Este 0.3 1009.8 0.2 96
2017-10-30 08:00:00 13.3 6 Este 15 Este 0.5 1009.5 -0.1 98
2017-10-30 07:00:00 13.3 0 Calma 11 Nordeste 0.8 1009.4 -0.3 98
2017-10-30 06:00:00 13.5 3 Nordeste 18 Nordeste 0 1009.6 -0.5 97
2017-10-30 05:00:00 13.2 2 Sudoeste 9 Sudoeste 0.6 1009.6 -0.7 96
2017-10-30 04:00:00 13.1 5 Sudoeste 11 Sudoeste 0 1009.7 -0.9 95
2017-10-30 03:00:00 13.4 9 Sur 13 Sur 0 1010.1 -0.9 95
2017-10-30 02:00:00 13.1 7 Sur 15 Sur 0 1010.3 -1.1 97
2017-10-30 01:00:00 13 2 Sur 5 Sudeste 0 1010.6 -1 97
2017-10-30 00:00:00 13 4 Sudeste 8 Sudeste 0 1011 -0.7 96
2017-10-29 23:00:00 13.6 5 Sudeste 13 Este 0 1011.4 -0.3 95
2017-10-29 22:00:00 14 4 Este 11 Sudeste 1.6 1011.6 -0.3 95
2017-10-29 21:00:00 14.1 2 Este 13 Sur 0 1011.7 0.1 88
2017-10-29 20:00:00 14.3 5 Sudeste 8 Sudeste 0 1011.7 0 87
2017-10-29 19:00:00 14.8 4 Sudeste 11 Este 0 1011.9 0 84
2017-10-29 18:00:00 15.3 2 Este 13 Nordeste 0 1011.6 -0.4 81
2017-10-29 17:00:00 15.9 0 Calma 11 Norte 0 1011.7 -0.6 76
2017-10-29 16:00:00 16.1 4 Nordeste 13 Norte 0 1011.9 -1 73
2017-10-29 15:00:00 16.8 2 Nordeste 15 Este 0 1012 -1.4 70
2017-10-29 14:00:00 17.4 5 Este 17 Este 0 1012.3 -1 66
2017-10-29 13:00:00 18.2 8 Sudeste 18 Sudeste 0 1012.9 -0.2 62
2017-10-29 12:00:00 17.9 6 Este 18 Este 0 1013.4 0.6 64
2017-10-29 11:00:00 17.7 5 Sudeste 17 Sudeste 0 1013.3 1 68
2017-10-29 10:00:00 15.2 9 Sudeste 15 Sudeste 0 1013.1 0.6 86
2017-10-29 09:00:00 13.2 8 Este -- -- 0 1012.8 0 93
2017-10-29 08:00:00 12.5 3 Este 8 Este 0 1012.3 -0.4 92
2017-10-29 07:00:00 12.9 6 Sudeste 8 Sudeste 0 1012.5 -0.3 93
2017-10-29 06:00:00 14.1 8 Sudeste 13 Sudeste 0 1012.8 -0.2 92
2017-10-29 05:00:00 13.7 8 Sudeste 13 Sudeste 0 1012.7 -0.3 92
2017-10-29 04:00:00 14.6 9 Sudeste 15 Este 0 1012.8 -0.3 91
2017-10-29 03:00:00 14.5 9 Este 17 Este 0 1013 -0.4 91
2017-10-29 02:00:00 13.9 5 Sudeste -- -- 0 1013 -0.8 95
2017-10-29 01:00:00 13.2 -- -- -- -- 0 1013.4 -0.8 93
2017-10-29 00:00:00 15.4 4 Este 15 Sudeste 0 1013.8 -0.5 91
2017-10-28 23:00:00 15.9 9 Sudeste 21 Sudeste 0 1014.1 0 88
2017-10-28 22:00:00 15.9 5 Este 17 Sudeste 0 1014.2 0.5 87
2017-10-28 21:00:00 15.3 9 Este 18 Este 0 1014.3 0.8 91
2017-10-28 20:00:00 15.6 13 Este 26 Este 0 1014.1 0.6 89
2017-10-28 19:00:00 16.2 12 Este 24 Este 0 1013.7 -0.2 85
2017-10-28 18:00:00 18.3 11 Este 26 Sudeste 0 1013.5 -0.8 77
2017-10-28 17:00:00 19.2 16 Sudeste 30 Este 0 1013.5 -1.6 72
2017-10-28 16:00:00 18.4 11 Este 24 Este 0 1013.9 -1.7 73
2017-10-28 15:00:00 18.5 10 Este 26 Este 0 1014.3 -1.4 75
2017-10-28 14:00:00 19.7 12 Este 26 Este 0 1015.1 -0.6 70
2017-10-28 13:00:00 18.3 13 Este 22 Este 0 1015.6 -0.1 74
2017-10-28 12:00:00 18.3 5 Este 24 Sudeste 0 1015.7 -0.1 75
2017-10-28 11:00:00 17.4 11 Sudeste 17 Este 0 1015.7 -0.2 82
2017-10-28 10:00:00 15.1 5 Sudeste -- -- 0 1015.7 -0.5 93
2017-10-28 09:00:00 13.9 11 Sudeste 15 Sudeste 0 1015.8 -0.4 92
2017-10-28 08:00:00 15.1 8 Sudeste 13 Sudeste 0 1015.9 -0.6 90
2017-10-28 07:00:00 15.5 6 Este 15 Este 0 1016.2 -0.6 92
2017-10-28 06:00:00 15.1 7 Sudeste 13 Este 0 1016.2 -0.9 95
2017-10-28 05:00:00 14.7 6 Sudeste 13 Este 0 1016.5 -0.9 94
2017-10-28 04:00:00 15.4 4 Sudeste 8 Sudeste 0 1016.8 -0.9 92
2017-10-28 03:00:00 15.8 7 Sudeste 15 Este 0 1017.1 -0.8 90
2017-10-28 02:00:00 16.3 10 Este 17 Este 0 1017.4 -0.8 90
2017-10-28 01:00:00 15.8 4 Este 8 Este 0 1017.7 -0.4 91
2017-10-28 00:00:00 15.8 4 Sudeste 11 Sudeste 0 1017.9 -0.2 90
2017-10-27 23:00:00 16.2 5 Sudeste 8 Sudeste 0 1018.2 0.3 89
2017-10-27 22:00:00 16 5 Sudeste 11 Este 0 1018.1 0.6 89
2017-10-27 21:00:00 16.6 6 Este 17 Este 0 1018.1 0.5 86
2017-10-27 20:00:00 16.9 11 Este 21 Este 0 1017.9 0.6 85
2017-10-27 19:00:00 17.5 10 Este 21 Este 0 1017.5 0.6 84
2017-10-27 18:00:00 18.6 12 Este 24 Este 0 1017.6 0.6 82
2017-10-27 17:00:00 19.6 11 Este 24 Nordeste 0 1017.3 0.4 78
2017-10-27 16:00:00 20.4 14 Este 28 Este 0 1016.9 -0.3 75
2017-10-27 15:00:00 20.3 14 Este 26 Este 0 1017 -0.2 74
2017-10-27 14:00:00 21.1 10 Este 21 Sudeste 0 1016.9 -0.3 71
2017-10-27 13:00:00 20.4 13 Este 21 Sudeste 0 1017.2 0.8 68
2017-10-27 12:00:00 18.5 15 Sudeste 22 Sudeste 0 1017.2 1.4 73
2017-10-27 11:00:00 16.6 5 Sudeste 21 Sur 0 1017.2 1.6 73
2017-10-27 10:00:00 13.8 16 Sur 24 Sur 0 1016.4 1 78
2017-10-27 09:00:00 12.7 17 Sur 26 Sur 0 1015.8 0.9 84
2017-10-27 08:00:00 12.9 15 Sudoeste 32 Sudoeste 0 1015.6 1.1 85
2017-10-27 07:00:00 13.4 13 Sur 28 Sur 0 1015.4 0.7 84
2017-10-27 06:00:00 13.8 18 Sudoeste 30 Sur 0 1014.9 0.1 82
2017-10-27 05:00:00 14 21 Sudoeste 33 Sur 0 1014.5 -0.4 83
2017-10-27 04:00:00 13.7 21 Sudoeste 30 Sur 0 1014.7 -0.3 86
2017-10-27 03:00:00 13.6 18 Sudoeste 26 Sudoeste 0 1014.8 0.1 86
2017-10-27 02:00:00 13.6 7 Sudoeste 17 Sudoeste 0 1014.9 0.5 85
2017-10-27 01:00:00 14.5 10 Sudoeste 18 Sudoeste 0 1015 1.1 84
2017-10-27 00:00:00 13.9 8 Sur 15 Sur 0 1014.7 1.1 85
2017-10-26 23:00:00 14.4 0 Calma 5 Sur 0 1014.4 1.5 83
2017-10-26 22:00:00 14.2 3 Sur -- -- 0 1013.9 1.9 83
2017-10-26 21:00:00 15.7 0 Calma 11 Sudeste 0 1013.6 2.1 78
2017-10-26 20:00:00 16.1 7 Sudeste 18 Este 0 1012.9 1.7 76
2017-10-26 19:00:00 19.2 12 Este 18 Este 0 1012 1.1 67
2017-10-26 18:00:00 21 11 Este 21 Este 0 1011.5 0.6 58
2017-10-26 17:00:00 21.6 11 Este 21 Nordeste 0 1011.2 0.1 61
2017-10-26 16:00:00 21.4 9 Este 24 Este 0 1010.9 0 65
2017-10-26 15:00:00 21.4 13 Este 24 Nordeste 0 1010.9 0.2 64
2017-10-26 14:00:00 21.4 6 Este 18 Nordeste 0 1011.1 0.6 64
2017-10-26 13:00:00 22.1 4 Sur 17 Sur 0 1010.9 1 48
2017-10-26 12:00:00 18.6 11 Sudoeste 26 Sur 0 1010.7 1.4 51
2017-10-26 11:00:00 15 17 Sudoeste 26 Sur 0 1010.5 1.9 60
2017-10-26 10:00:00 13 15 Sudoeste 22 Sudoeste 0 1009.9 1.8 66
2017-10-26 09:00:00 11.9 14 Sudoeste 22 Sur 0 1009.3 1.6 71
2017-10-26 08:00:00 11 14 Sudoeste 18 Sudoeste 0 1008.6 1.6 76
2017-10-26 07:00:00 11.6 5 Sudoeste 15 Sudoeste 0 1008.1 1.4 72
2017-10-26 06:00:00 13.5 8 Sudoeste 30 Noroeste 0 1007.7 1.9 68
2017-10-26 05:00:00 14.4 17 Oeste 28 Oeste 0 1007 1.4 71
2017-10-26 04:00:00 13.5 9 Oeste 28 Sudoeste 0 1006.7 1 67
2017-10-26 03:00:00 15.4 18 Sudoeste 30 Sudoeste 0 1005.8 -0.1 58
2017-10-26 02:00:00 15.5 22 Sudoeste 33 Sur 0 1005.6 -0.1 60
2017-10-26 01:00:00 15.9 23 Sur 33 Sur 0 1005.7 0 60
2017-10-26 00:00:00 16.5 19 Sudoeste 28 Sudoeste 0 1005.9 0 61